Time;durP1;ratioP1;P1;durP2;ratioP2;P2;SDS_P1;SDS_P2;PMS_P1;PMS_P2;Temp;Humidity;BMP_temperature;BMP_pressure;BME280_temperature;BME280_humidity;BME280_pressure;Samples;Min_cycle;Max_cycle;Signal;HPM_P1;HPM_P2
2023/01/01 00:03:15;;;;;;;9.03;6.40;;;;;;;16.52;44.43;99652.13;10312455;28;20263;-37
2023/01/01 00:08:17;;;;;;;10.10;6.93;;;;;;;15.97;44.62;99669.13;10306519;28;20242;-37
2023/01/01 00:13:18;;;;;;;10.40;8.07;;;;;;;17.44;43.46;99596.94;10321168;28;20241;-37
2023/01/01 00:18:21;;;;;;;10.47;7.30;;;;;;;17.51;42.38;99609.31;10325798;28;20233;-37
2023/01/01 00:23:23;;;;;;;10.70;7.63;;;;;;;19.04;40.56;99561.19;10314959;28;20628;-37
2023/01/01 00:28:25;;;;;;;65.73;43.30;;;;;;;17.63;41.28;99611.19;10324037;28;20230;-37
2023/01/01 00:33:27;;;;;;;17.67;14.30;;;;;;;19.00;40.29;99579.84;10320464;28;20253;-37
2023/01/01 00:38:28;;;;;;;10.83;7.77;;;;;;;18.41;41.17;99633.47;10349959;28;20718;-37
2023/01/01 00:43:30;;;;;;;9.43;6.47;;;;;;;17.62;42.41;99683.41;10360895;28;20233;-37
2023/01/01 00:48:33;;;;;;;7.37;5.67;;;;;;;16.81;42.68;99661.31;10322434;28;20253;-37
2023/01/01 00:53:34;;;;;;;9.90;6.50;;;;;;;17.88;42.09;99663.22;10317952;28;20242;-37
2023/01/01 00:58:36;;;;;;;8.70;6.60;;;;;;;17.31;42.76;99676.44;10365214;28;20328;-37
2023/01/01 01:03:39;;;;;;;12.97;7.53;;;;;;;18.18;41.75;99642.44;10362818;28;20267;-37
2023/01/01 01:08:43;;;;;;;9.43;7.53;;;;;;;17.43;42.77;99693.50;10327130;28;20246;-37
2023/01/01 01:13:47;;;;;;;9.93;8.00;;;;;;;17.48;42.55;99699.03;10316093;28;20249;-37
2023/01/01 01:18:50;;;;;;;10.23;7.73;;;;;;;16.39;44.21;99701.72;10318814;28;20712;-37
2023/01/01 01:23:53;;;;;;;12.40;8.17;;;;;;;17.27;42.37;99686.03;10318491;28;20274;-37
2023/01/01 01:28:55;;;;;;;11.13;8.30;;;;;;;17.54;42.95;99727.88;10319584;28;20229;-37
2023/01/01 01:33:58;;;;;;;13.80;9.00;;;;;;;17.79;42.82;99720.63;10321721;28;20719;-37
2023/01/01 01:38:59;;;;;;;10.83;9.53;;;;;;;16.51;44.39;99736.91;10317159;28;20238;-37
2023/01/01 01:44:23;;;;;;;11.27;9.00;;;;;;;16.32;44.64;99739.59;10318314;28;20740;-37
2023/01/01 01:49:31;;;;;;;11.57;9.40;;;;;;;17.25;43.20;99696.28;10364604;28;20236;-37
2023/01/01 01:54:32;;;;;;;10.87;8.80;;;;;;;16.80;44.03;99732.59;10368217;28;20597;-37
2023/01/01 01:59:39;;;;;;;9.23;6.83;;;;;;;15.37;45.85;99716.28;10367678;28;20249;-37
2023/01/01 02:04:41;;;;;;;15.03;10.00;;;;;;;16.14;46.05;99670.19;10365682;28;20742;-37
2023/01/01 02:09:43;;;;;;;7.67;5.63;;;;;;;14.25;47.66;99672.66;10323172;28;20238;-37
2023/01/01 02:14:45;;;;;;;8.37;6.83;;;;;;;14.61;47.46;99725.13;10323643;28;20261;-37
2023/01/01 02:20:11;;;;;;;10.20;5.27;;;;;;;15.57;46.64;99673.03;10311822;28;20233;-37
2023/01/01 02:25:24;;;;;;;8.90;4.30;;;;;;;13.58;48.36;99676.25;10316638;28;20237;-37
2023/01/01 02:30:29;;;;;;;8.57;5.20;;;;;;;14.20;47.81;99710.97;10317318;28;20234;-37
2023/01/01 02:35:41;;;;;;;8.30;5.77;;;;;;;15.18;47.16;99677.63;10316161;28;20250;-37
2023/01/01 02:40:49;;;;;;;8.23;5.47;;;;;;;15.75;46.36;99634.47;10314148;28;20249;-37
2023/01/01 02:45:53;;;;;;;9.40;5.30;;;;;;;13.93;47.88;99689.44;10320219;28;20230;-37
2023/01/01 02:51:00;;;;;;;7.80;5.43;;;;;;;14.45;46.90;99716.47;10314789;28;20715;-37
2023/01/01 02:56:13;;;;;;;7.70;5.20;;;;;;;15.70;45.92;99658.59;10319147;28;20236;-36
2023/01/01 03:01:34;;;;;;;6.93;4.73;;;;;;;14.02;47.58;99727.75;10319313;28;20229;-37
2023/01/01 03:06:49;;;;;;;7.03;4.40;;;;;;;15.93;44.50;99666.06;10316502;28;20241;-37
2023/01/01 03:11:51;;;;;;;4.93;3.90;;;;;;;14.78;46.26;99756.78;10317171;28;20253;-37
2023/01/01 03:17:17;;;;;;;6.23;4.50;;;;;;;15.16;45.74;99711.22;10319967;28;20904;-37
2023/01/01 03:22:23;;;;;;;5.30;3.63;;;;;;;14.40;47.07;99748.59;10318051;28;20234;-37
2023/01/01 03:27:30;;;;;;;6.47;3.70;;;;;;;14.61;47.28;99770.91;10313331;28;20586;-37
2023/01/01 03:38:00;;;;;;;4.83;3.37;;;;;;;15.43;45.93;99731.56;10314700;28;20239;-37
2023/01/01 03:43:08;;;;;;;4.53;3.23;;;;;;;14.73;46.09;99756.59;10326345;28;20257;-37
2023/01/01 03:48:11;;;;;;;5.53;3.70;;;;;;;15.86;44.96;99673.41;10317031;28;20258;-37
2023/01/01 03:53:29;;;;;;;2.90;2.57;;;;;;;16.21;44.03;99689.84;10325564;28;20241;-36
2023/01/01 03:58:39;;;;;;;5.43;2.87;;;;;;;14.07;47.02;99767.47;10322160;28;20877;-36
2023/01/01 04:03:41;;;;;;;3.93;3.27;;;;;;;15.85;44.69;99749.97;10321060;28;20237;-37
2023/01/01 04:08:45;;;;;;;3.90;3.07;;;;;;;15.27;44.88;99773.38;10324523;28;20608;-36
2023/01/01 04:13:47;;;;;;;5.70;3.40;;;;;;;16.47;43.70;99695.22;10321232;28;20329;-37
2023/01/01 04:18:49;;;;;;;4.63;3.23;;;;;;;16.43;43.44;99746.97;10323344;28;20461;-37
2023/01/01 04:23:51;;;;;;;4.23;3.00;;;;;;;15.72;44.09;99764.38;10324325;28;20614;-37
2023/01/01 04:28:52;;;;;;;6.40;3.00;;;;;;;15.90;44.06;99773.59;10322914;28;20829;-36
2023/01/01 04:33:54;;;;;;;3.53;3.10;;;;;;;16.29;43.62;99731.13;10321272;28;20240;-37
2023/01/01 04:38:56;;;;;;;3.67;2.90;;;;;;;17.52;42.63;99691.28;10321561;28;20229;-37
2023/01/01 04:43:58;;;;;;;4.97;3.43;;;;;;;17.87;41.78;99717.59;10324029;28;20248;-37
2023/01/01 04:48:59;;;;;;;4.07;2.70;;;;;;;17.82;41.58;99728.28;10319688;28;20855;-37
2023/01/01 04:54:01;;;;;;;3.90;2.93;;;;;;;18.17;41.00;99708.50;10322087;28;20257;-37
2023/01/01 04:59:03;;;;;;;3.50;2.93;;;;;;;17.80;41.38;99746.63;10324167;28;20833;-37
2023/01/01 05:04:04;;;;;;;5.30;2.97;;;;;;;18.00;41.44;99765.22;10320821;28;20241;-37
2023/01/01 05:09:08;;;;;;;4.10;2.83;;;;;;;17.26;42.32;99808.78;10329411;28;20241;-37
2023/01/01 05:14:10;;;;;;;5.80;3.10;;;;;;;18.44;41.04;99730.53;10321549;28;20244;-37
2023/01/01 05:19:12;;;;;;;7.60;3.23;;;;;;;18.27;40.71;99758.31;10324799;28;20248;-37
2023/01/01 05:24:14;;;;;;;5.63;3.43;;;;;;;16.67;42.29;99794.91;10320956;28;20308;-37
2023/01/01 05:29:18;;;;;;;5.07;3.13;;;;;;;17.25;41.93;99810.66;10318536;28;20241;-37
2023/01/01 05:34:20;;;;;;;4.83;3.10;;;;;;;17.66;41.42;99814.50;10329630;28;20230;-37
2023/01/01 05:39:21;;;;;;;6.30;3.10;;;;;;;17.41;41.31;99797.53;10319514;28;20234;-38
2023/01/01 05:44:23;;;;;;;6.57;2.93;;;;;;;16.69;42.44;99847.66;10316964;28;20241;-38
2023/01/01 05:49:25;;;;;;;6.30;3.30;;;;;;;17.78;41.21;99775.81;10360906;28;20718;-38
2023/01/01 05:54:26;;;;;;;4.20;3.30;;;;;;;16.92;41.50;99821.84;10318001;28;20225;-37
2023/01/01 05:59:28;;;;;;;7.10;3.50;;;;;;;17.17;41.96;99829.91;10318175;28;20221;-37
2023/01/01 06:04:30;;;;;;;4.50;3.43;;;;;;;17.46;41.65;99797.69;10325158;28;20230;-37
2023/01/01 06:09:32;;;;;;;8.43;3.60;;;;;;;17.53;40.84;99793.03;10319191;28;20240;-37
2023/01/01 06:14:33;;;;;;;5.47;3.70;;;;;;;16.90;41.98;99832.06;10323237;28;20765;-37
2023/01/01 06:19:35;;;;;;;5.47;3.13;;;;;;;15.96;42.69;99815.88;10320516;28;20245;-37
2023/01/01 06:24:37;;;;;;;5.50;3.27;;;;;;;16.33;42.02;99841.16;10320090;28;20244;-37
2023/01/01 06:29:39;;;;;;;5.10;3.10;;;;;;;17.02;41.79;99827.56;10315816;28;20237;-37
2023/01/01 06:34:41;;;;;;;8.40;3.20;;;;;;;17.99;40.33;99761.72;10323268;28;20232;-37
2023/01/01 06:39:43;;;;;;;6.07;4.50;;;;;;;17.72;41.28;99794.63;10320605;28;20233;-37
2023/01/01 06:44:44;;;;;;;5.37;4.07;;;;;;;16.39;41.81;99848.38;10315387;28;20272;-37
2023/01/01 06:49:46;;;;;;;6.20;3.27;;;;;;;16.46;42.22;99864.50;10320881;28;20248;-37
2023/01/01 06:54:48;;;;;;;5.53;3.43;;;;;;;15.50;43.91;99860.97;10315313;28;20327;-37
2023/01/01 06:59:49;;;;;;;5.93;3.70;;;;;;;15.96;43.11;99896.84;10317035;28;20648;-37
2023/01/01 07:04:51;;;;;;;6.07;3.87;;;;;;;15.91;43.65;99881.31;10319496;28;20252;-37
2023/01/01 07:09:53;;;;;;;5.43;3.80;;;;;;;15.55;43.28;99881.94;10314225;28;20241;-37
2023/01/01 07:14:55;;;;;;;6.67;3.87;;;;;;;14.89;44.58;99891.88;10317335;28;20344;-37
2023/01/01 07:19:56;;;;;;;9.60;4.87;;;;;;;15.57;44.36;99896.03;10321925;28;20627;-37
2023/01/01 07:24:58;;;;;;;6.87;4.20;;;;;;;15.59;43.66;99899.31;10324908;28;20755;-37
2023/01/01 07:30:00;;;;;;;6.60;3.77;;;;;;;15.61;43.56;99914.28;10323621;28;20241;-38
2023/01/01 07:35:02;;;;;;;9.67;5.80;;;;;;;15.93;42.91;99921.59;10332103;28;20229;-37
2023/01/01 07:40:04;;;;;;;9.80;6.10;;;;;;;16.14;42.69;99912.31;10333419;28;20246;-37
2023/01/01 07:45:06;;;;;;;8.40;4.70;;;;;;;15.59;44.03;99924.44;10324595;28;20237;-37
2023/01/01 07:50:15;;;;;;;5.77;4.70;;;;;;;14.13;45.26;99928.09;10323952;28;20615;-37
2023/01/01 07:55:18;;;;;;;7.00;4.80;;;;;;;14.52;44.82;99953.41;10327410;28;20236;-37
2023/01/01 08:00:21;;;;;;;7.77;4.73;;;;;;;14.64;44.68;99972.47;10332160;28;20333;-37
2023/01/01 08:05:23;;;;;;;10.17;5.87;;;;;;;14.99;44.58;99975.78;10321154;28;20248;-37
2023/01/01 08:10:27;;;;;;;11.70;6.33;;;;;;;16.41;42.64;99904.84;10323219;28;20238;-37
2023/01/01 08:15:30;;;;;;;8.07;6.20;;;;;;;15.35;43.32;99942.13;10323718;28;20233;-37
2023/01/01 08:20:33;;;;;;;7.00;5.13;;;;;;;14.85;44.29;99963.41;10325117;28;20236;-37
2023/01/01 08:25:35;;;;;;;13.83;7.27;;;;;;;15.28;43.36;99962.88;10322945;28;20262;-37
2023/01/01 08:30:36;;;;;;;11.10;7.60;;;;;;;15.92;43.49;99969.31;10319295;28;20244;-37
2023/01/01 08:35:41;;;;;;;9.13;6.30;;;;;;;17.33;41.35;99893.38;10318767;28;21900;-37
2023/01/01 08:40:43;;;;;;;8.87;5.90;;;;;;;17.93;40.68;99903.41;10318715;28;20233;-37
2023/01/01 08:45:45;;;;;;;9.73;5.00;;;;;;;16.33;42.37;99962.69;10326150;28;20754;-38
2023/01/01 08:50:53;;;;;;;6.60;5.07;;;;;;;17.67;40.76;99894.59;10320469;28;20257;-37
2023/01/01 08:56:00;;;;;;;5.97;4.07;;;;;;;15.61;44.20;100016.75;10320107;28;20229;-37
2023/01/01 09:01:03;;;;;;;7.33;3.77;;;;;;;14.97;45.08;99983.28;10319158;28;20238;-37
2023/01/01 09:06:05;;;;;;;7.80;4.00;;;;;;;17.59;41.73;99884.06;10318400;28;20230;-37
2023/01/01 09:11:24;;;;;;;7.53;4.20;;;;;;;15.12;45.58;99997.34;10318504;28;20234;-37
2023/01/01 09:16:25;;;;;;;6.70;3.93;;;;;;;17.60;42.52;99863.28;10319793;28;20230;-37
2023/01/01 09:21:27;;;;;;;7.97;4.40;;;;;;;17.62;41.31;99920.69;10317296;28;20691;-37
2023/01/01 09:26:29;;;;;;;13.47;9.13;;;;;;;18.93;40.11;99911.81;10316896;28;20221;-37
2023/01/01 09:31:31;;;;;;;18.80;12.30;;;;;;;19.23;39.37;99886.44;10314267;28;20355;-37
2023/01/01 09:36:33;;;;;;;6.83;4.60;;;;;;;19.08;40.03;99898.63;10306121;28;20674;-37
2023/01/01 09:41:54;;;;;;;6.77;4.03;;;;;;;19.59;39.30;99890.72;10324006;28;20238;-37
2023/01/01 09:47:00;;;;;;;9.40;3.93;;;;;;;18.17;41.28;99974.72;10303915;28;20754;-37
2023/01/01 09:52:04;;;;;;;8.20;5.70;;;;;;;17.22;41.83;100005.81;10317369;28;20238;-37
2023/01/01 09:57:11;;;;;;;6.43;3.63;;;;;;;16.86;41.88;100020.06;10314578;28;20238;-37
2023/01/01 10:02:35;;;;;;;5.60;4.07;;;;;;;17.96;40.98;99940.03;10310682;28;20312;-37
2023/01/01 10:07:42;;;;;;;9.37;4.17;;;;;;;16.98;42.04;99983.97;10309038;28;20241;-37
2023/01/01 10:13:16;;;;;;;6.17;4.17;;;;;;;17.11;41.09;99971.41;10315419;28;20238;-37
2023/01/01 10:18:22;;;;;;;6.37;3.93;;;;;;;18.48;40.25;99925.94;10309450;28;20226;-37
2023/01/01 10:23:34;;;;;;;5.13;3.50;;;;;;;17.41;41.23;100003.97;10313274;28;20328;-37
2023/01/01 10:28:48;;;;;;;21.50;12.23;;;;;;;17.52;40.87;99945.56;10312368;28;20595;-37
2023/01/01 10:33:50;;;;;;;7.70;4.03;;;;;;;19.10;39.31;99879.41;10309741;28;20236;-37
2023/01/01 10:38:52;;;;;;;6.47;3.47;;;;;;;16.06;42.63;100010.56;10309634;28;20237;-37
2023/01/01 10:43:54;;;;;;;7.37;3.77;;;;;;;16.12;42.42;99968.38;10315763;28;20237;-37
2023/01/01 10:49:10;;;;;;;5.83;2.80;;;;;;;17.24;40.99;99968.56;10309021;28;20226;-37
2023/01/01 10:54:37;;;;;;;6.53;3.20;;;;;;;16.34;42.13;99967.00;10315507;28;20859;-37
2023/01/01 10:59:40;;;;;;;6.27;3.87;;;;;;;16.64;42.59;99968.28;10361259;28;20251;-37
2023/01/01 11:06:24;;;;;;;9.40;3.50;;;;;;;13.47;47.05;100004.81;10447654;28;20819;-63
2023/01/01 11:11:29;;;;;;;5.00;3.60;;;;;;;14.72;44.77;99983.84;10431230;28;20236;-62
2023/01/01 11:16:37;;;;;;;8.77;4.23;;;;;;;14.74;45.39;99956.72;10432731;28;20791;-62
2023/01/01 11:21:46;;;;;;;11.03;6.50;;;;;;;15.70;43.86;99890.56;10434114;28;20230;-62
2023/01/01 11:26:49;;;;;;;7.70;4.03;;;;;;;16.89;42.70;99855.56;10432394;28;20232;-62
2023/01/01 11:31:57;;;;;;;8.47;3.60;;;;;;;15.44;43.19;99902.28;10451272;28;20235;-63
2023/01/01 11:37:34;;;;;;;5.83;3.23;;;;;;;16.15;43.36;99906.69;10448580;28;20224;-63
2023/01/01 11:42:46;;;;;;;5.37;2.97;;;;;;;15.66;44.66;99929.81;10417690;28;20244;-67
2023/01/01 11:48:11;;;;;;;4.67;2.70;;;;;;;14.83;44.64;99925.88;10430422;28;20824;-62
2023/01/01 11:53:15;;;;;;;7.17;3.17;;;;;;;14.68;44.68;99909.09;10434035;28;20228;-62
2023/01/01 11:58:36;;;;;;;5.77;3.00;;;;;;;16.81;42.31;99851.28;10430127;28;20243;-60
2023/01/01 12:03:44;;;;;;;6.23;3.30;;;;;;;16.98;42.15;99859.63;10430510;28;20243;-62
2023/01/01 12:08:55;;;;;;;7.33;3.13;;;;;;;16.88;42.10;99844.97;10434324;28;20858;-62
2023/01/01 12:14:11;;;;;;;4.30;2.70;;;;;;;17.40;41.04;99798.63;10428623;28;20263;-62
2023/01/01 12:19:25;;;;;;;5.87;2.80;;;;;;;17.12;42.18;99859.50;10406025;28;20772;-63
2023/01/01 12:24:33;;;;;;;5.27;2.80;;;;;;;17.55;40.99;99809.84;10441533;28;20246;-63
2023/01/01 12:29:50;;;;;;;6.23;2.80;;;;;;;14.89;42.98;99862.25;10447482;28;20761;-62
2023/01/01 12:35:36;;;;;;;9.97;3.27;;;;;;;17.47;40.83;99802.88;10458734;28;20787;-62
2023/01/01 12:41:00;;;;;;;5.10;3.00;;;;;;;17.05;41.20;99808.22;10441070;28;20235;-62
2023/01/01 12:46:20;;;;;;;8.90;3.90;;;;;;;16.17;41.60;99868.69;10448786;28;20235;-62
2023/01/01 12:51:34;;;;;;;5.07;3.27;;;;;;;15.99;41.29;99866.72;10450582;28;20231;-62
2023/01/01 12:57:02;;;;;;;6.73;3.00;;;;;;;17.07;40.44;99835.00;10438446;28;20749;-62
2023/01/01 13:02:26;;;;;;;6.30;2.90;;;;;;;16.95;40.25;99789.81;10448483;28;20239;-63
2023/01/01 13:07:39;;;;;;;12.97;3.67;;;;;;;18.95;38.35;99747.84;10443544;28;20239;-62
2023/01/01 13:12:41;;;;;;;6.03;3.17;;;;;;;18.32;39.55;99782.00;10441300;28;20749;-63
2023/01/01 13:17:52;;;;;;;7.17;2.80;;;;;;;18.32;39.23;99770.34;10446089;28;20236;-62
2023/01/01 13:22:53;;;;;;;5.47;2.77;;;;;;;18.95;39.11;99774.16;10442292;28;20278;-60
2023/01/01 13:27:55;;;;;;;6.33;2.70;;;;;;;18.16;39.77;99783.50;10442230;28;20239;-61
2023/01/01 13:33:16;;;;;;;7.17;2.83;;;;;;;18.08;40.12;99789.25;10440628;28;20805;-59
2023/01/01 13:38:44;;;;;;;8.17;3.10;;;;;;;18.72;39.36;99764.16;10440532;28;20851;-60
2023/01/01 13:43:46;;;;;;;5.00;3.17;;;;;;;18.39;39.64;99771.88;10442171;28;20235;-60
2023/01/01 13:49:21;;;;;;;7.87;3.10;;;;;;;17.31;39.96;99827.88;10441940;28;20262;-61
2023/01/01 13:54:53;;;;;;;7.33;3.27;;;;;;;17.35;40.64;99826.34;10441411;28;20244;-59
2023/01/01 14:00:16;;;;;;;6.53;3.00;;;;;;;16.65;40.59;99857.28;10441696;28;20227;-61
2023/01/01 14:05:53;;;;;;;4.23;2.87;;;;;;;18.90;38.79;99753.16;10440294;28;20236;-60
2023/01/01 14:10:56;;;;;;;9.00;3.10;;;;;;;18.48;38.90;99785.88;10439140;28;20235;-60
2023/01/01 14:16:09;;;;;;;6.33;3.57;;;;;;;18.99;38.40;99737.34;10442402;28;20619;-59
2023/01/01 14:21:23;;;;;;;6.43;3.40;;;;;;;19.20;37.82;99754.84;10433381;28;20320;-59
2023/01/01 14:26:26;;;;;;;6.47;3.37;;;;;;;19.93;37.48;99728.69;10448193;28;20239;-60
2023/01/01 14:31:31;;;;;;;5.70;3.00;;;;;;;18.50;37.54;99793.78;10440772;28;20313;-61
2023/01/01 14:36:32;;;;;;;5.10;2.90;;;;;;;18.03;38.22;99819.72;10440774;28;20675;-62
2023/01/01 14:41:43;;;;;;;6.10;3.03;;;;;;;19.38;37.74;99741.06;10440911;28;20327;-61
2023/01/01 14:46:48;;;;;;;5.80;3.40;;;;;;;19.49;37.01;99697.81;10427986;28;20232;-63
2023/01/01 14:51:57;;;;;;;10.00;4.07;;;;;;;18.36;38.63;99815.69;10412923;28;20806;-66
2023/01/01 14:56:59;;;;;;;6.23;3.90;;;;;;;16.98;39.61;99835.31;10417165;28;20229;-65
2023/01/01 15:02:21;;;;;;;9.43;3.90;;;;;;;18.62;38.99;99776.44;10416145;28;20243;-61
2023/01/01 15:07:26;;;;;;;9.03;4.67;;;;;;;19.45;37.33;99723.78;10437071;28;20243;-62
2023/01/01 15:12:29;;;;;;;10.00;4.67;;;;;;;18.44;39.56;99814.50;10436186;28;20239;-61
2023/01/01 15:17:44;;;;;;;9.57;4.73;;;;;;;16.77;41.51;99824.94;10445542;28;20224;-61
2023/01/01 15:22:46;;;;;;;8.83;3.60;;;;;;;17.69;40.59;99791.56;10437871;28;20227;-60
2023/01/01 15:27:54;;;;;;;7.13;3.53;;;;;;;17.78;39.43;99767.69;10435681;28;20241;-61
2023/01/01 15:33:06;;;;;;;8.70;3.40;;;;;;;16.36;40.90;99777.78;10437652;28;20257;-60
2023/01/01 15:38:20;;;;;;;11.40;4.10;;;;;;;17.31;39.58;99766.50;10439045;28;20236;-60
2023/01/01 15:43:29;;;;;;;6.27;4.17;;;;;;;16.90;40.19;99780.72;10436865;28;20771;-60
2023/01/01 15:48:36;;;;;;;11.73;6.83;;;;;;;17.94;39.88;99750.75;10441192;28;20377;-60
2023/01/01 15:53:49;;;;;;;13.03;7.87;;;;;;;18.69;38.22;99683.31;10436104;28;20247;-60
2023/01/01 15:59:25;;;;;;;7.73;5.73;;;;;;;18.55;39.20;99720.72;10440621;28;20292;-61
2023/01/01 16:04:26;;;;;;;8.57;5.90;;;;;;;18.58;39.16;99731.91;10445799;28;20587;-60
2023/01/01 16:09:31;;;;;;;8.73;4.27;;;;;;;17.43;39.15;99768.41;10402887;28;21622;-60
2023/01/01 16:14:34;;;;;;;7.73;4.10;;;;;;;18.20;38.28;99735.09;10405452;28;20229;-59
2023/01/01 16:19:36;;;;;;;16.10;6.50;;;;;;;19.92;36.65;99666.47;10406203;28;20242;-60
2023/01/01 16:24:37;;;;;;;8.40;5.03;;;;;;;20.10;36.05;99678.94;10397619;28;20231;-60
2023/01/01 16:29:39;;;;;;;9.53;5.53;;;;;;;19.73;36.42;99699.31;10403587;28;20228;-60
2023/01/01 16:34:44;;;;;;;7.97;3.60;;;;;;;19.02;38.74;99721.41;10391368;28;20328;-65
2023/01/01 16:39:46;;;;;;;7.77;4.20;;;;;;;18.32;38.78;99714.31;10384548;28;20245;-60
2023/01/01 16:44:47;;;;;;;9.13;4.33;;;;;;;19.52;36.99;99681.88;10373246;28;20924;-60
2023/01/01 16:49:49;;;;;;;7.43;3.67;;;;;;;18.83;37.24;99739.72;10382519;28;20236;-60
2023/01/01 16:54:51;;;;;;;7.10;4.03;;;;;;;18.49;37.21;99722.50;10385304;28;20293;-61
2023/01/01 16:59:52;;;;;;;6.63;3.70;;;;;;;18.68;36.85;99697.97;10384266;28;20883;-61
2023/01/01 17:04:54;;;;;;;11.23;3.90;;;;;;;18.45;38.69;99695.03;10384814;28;20232;-60
2023/01/01 17:09:56;;;;;;;6.00;3.40;;;;;;;18.42;38.14;99711.81;10378510;28;20640;-64
2023/01/01 17:14:57;;;;;;;5.50;3.13;;;;;;;18.58;37.33;99682.31;10382192;28;20240;-61
2023/01/01 17:19:59;;;;;;;6.27;3.10;;;;;;;19.12;36.98;99692.84;10388546;28;20241;-62
2023/01/01 17:25:01;;;;;;;7.33;3.20;;;;;;;18.59;37.59;99684.78;10396863;28;20240;-60
2023/01/01 17:30:04;;;;;;;8.00;3.83;;;;;;;17.51;38.99;99695.88;10399489;28;20239;-60
2023/01/01 17:35:06;;;;;;;9.77;3.33;;;;;;;18.60;37.83;99704.56;10391956;28;20612;-59
2023/01/01 17:40:08;;;;;;;7.13;3.50;;;;;;;18.41;37.89;99703.91;10395566;28;20243;-59
2023/01/01 17:45:10;;;;;;;9.83;4.20;;;;;;;18.82;37.90;99661.34;10396439;28;20661;-60
2023/01/01 17:50:12;;;;;;;10.80;6.40;;;;;;;18.74;37.42;99648.19;10391940;28;20240;-60
2023/01/01 17:55:13;;;;;;;13.17;7.57;;;;;;;18.35;38.70;99680.47;10387858;28;20244;-59
2023/01/01 18:00:15;;;;;;;15.57;8.67;;;;;;;16.73;40.47;99705.66;10388405;28;20236;-60
2023/01/01 18:05:17;;;;;;;13.17;8.23;;;;;;;18.15;38.94;99661.88;10391770;28;20744;-60
2023/01/01 18:10:19;;;;;;;9.87;6.33;;;;;;;17.70;39.02;99645.19;10393005;28;20237;-60
2023/01/01 18:15:20;;;;;;;9.63;5.43;;;;;;;16.76;39.83;99670.09;10388564;28;20240;-60
2023/01/01 18:20:22;;;;;;;8.67;4.83;;;;;;;16.58;40.96;99673.66;10395632;28;20240;-61
2023/01/01 18:25:24;;;;;;;8.27;5.93;;;;;;;15.55;42.24;99658.91;10378306;28;20244;-62
2023/01/01 18:30:26;;;;;;;11.00;6.90;;;;;;;16.48;41.39;99667.94;10376346;28;20244;-62
2023/01/01 18:35:28;;;;;;;16.20;11.13;;;;;;;15.79;42.74;99673.47;10378665;28;20255;-64
2023/01/01 18:40:31;;;;;;;12.10;6.90;;;;;;;15.36;42.98;99670.66;10371951;28;20596;-64
2023/01/01 18:45:33;;;;;;;11.67;7.50;;;;;;;16.19;42.28;99642.50;10382489;28;20243;-63
2023/01/01 18:50:35;;;;;;;13.87;8.50;;;;;;;16.08;42.41;99641.41;10373979;28;20240;-65
2023/01/01 18:55:37;;;;;;;10.67;7.67;;;;;;;16.73;41.19;99618.38;10371674;28;20236;-63
2023/01/01 19:00:39;;;;;;;13.10;8.40;;;;;;;17.82;39.96;99582.13;10382538;28;20240;-63
2023/01/01 19:05:41;;;;;;;15.03;11.07;;;;;;;18.31;38.45;99587.22;10384602;28;20248;-62
2023/01/01 19:10:55;;;;;;;15.13;9.67;;;;;;;17.04;40.05;99657.06;10387861;28;20241;-63
2023/01/01 19:16:09;;;;;;;11.77;7.47;;;;;;;17.13;40.16;99655.69;10386162;28;20236;-61
2023/01/01 19:21:11;;;;;;;11.30;7.10;;;;;;;16.81;40.29;99654.00;10374359;28;20232;-62
2023/01/01 19:26:31;;;;;;;12.57;5.53;;;;;;;16.22;41.39;99690.66;10388151;28;20256;-61
2023/01/01 19:31:33;;;;;;;11.30;6.07;;;;;;;16.38;41.16;99673.06;10400584;28;20240;-60
2023/01/01 19:36:34;;;;;;;10.87;6.20;;;;;;;15.73;42.22;99681.59;10402047;28;20272;-60
2023/01/01 19:41:37;;;;;;;10.90;6.37;;;;;;;17.62;39.91;99579.78;10383345;28;20240;-62
2023/01/01 19:46:38;;;;;;;12.83;8.70;;;;;;;16.37;41.16;99663.31;10388037;28;20233;-61
2023/01/01 19:51:40;;;;;;;9.03;6.77;;;;;;;15.90;41.54;99679.16;10381192;28;20237;-60
2023/01/01 19:56:42;;;;;;;9.93;6.00;;;;;;;14.87;42.83;99656.91;10399648;28;20240;-60
2023/01/01 20:01:43;;;;;;;9.33;6.00;;;;;;;15.31;41.88;99677.53;10400617;28;20236;-61
2023/01/01 20:06:45;;;;;;;10.30;6.17;;;;;;;15.22;42.50;99669.91;10398977;28;20315;-61
2023/01/01 20:11:47;;;;;;;15.27;7.97;;;;;;;16.31;41.83;99626.41;10402912;28;20258;-60
2023/01/01 20:16:52;;;;;;;11.23;6.43;;;;;;;14.47;43.67;99643.59;10397019;28;20260;-61
2023/01/01 20:22:13;;;;;;;12.67;5.73;;;;;;;13.40;45.23;99647.28;10392404;28;20241;-60
2023/01/01 20:27:25;;;;;;;10.93;6.73;;;;;;;14.47;44.30;99667.81;10395265;28;20252;-59
2023/01/01 20:32:27;;;;;;;9.63;6.33;;;;;;;14.71;44.50;99656.31;10394937;28;20233;-61
2023/01/01 20:37:39;;;;;;;8.63;5.47;;;;;;;13.95;45.28;99673.94;10393909;28;20260;-60
2023/01/01 20:42:42;;;;;;;9.57;6.23;;;;;;;15.36;42.70;99663.41;10392413;28;20241;-61
2023/01/01 20:47:44;;;;;;;12.43;6.33;;;;;;;15.14;42.71;99663.75;10397104;28;20238;-61
2023/01/01 20:52:45;;;;;;;14.40;7.60;;;;;;;14.62;43.41;99676.44;10399224;28;20228;-60
2023/01/01 20:57:47;;;;;;;9.37;5.73;;;;;;;14.48;44.08;99697.22;10399974;28;20239;-61
2023/01/01 21:02:48;;;;;;;11.10;5.40;;;;;;;14.68;44.50;99682.88;10393683;28;20248;-62
2023/01/01 21:07:50;;;;;;;9.03;5.47;;;;;;;15.84;42.81;99621.50;10403512;28;20311;-62
2023/01/01 21:12:52;;;;;;;7.37;5.50;;;;;;;15.52;43.06;99654.78;10395883;28;20247;-67
2023/01/01 21:17:54;;;;;;;8.50;4.50;;;;;;;13.86;44.92;99669.81;10405090;28;20233;-60
2023/01/01 21:22:59;;;;;;;8.80;4.73;;;;;;;15.05;43.98;99678.53;9518808;28;10000998;-62
2023/01/01 21:28:01;;;;;;;9.23;4.57;;;;;;;15.18;43.96;99668.72;10397089;28;20239;-62
2023/01/01 21:33:13;;;;;;;7.83;4.07;;;;;;;13.99;45.17;99704.75;10401852;28;20239;-61
2023/01/01 21:38:20;;;;;;;6.17;4.30;;;;;;;14.45;44.92;99708.41;10407505;28;20234;-61
2023/01/01 21:43:33;;;;;;;8.33;4.57;;;;;;;15.55;43.65;99626.56;10407213;28;20736;-62
2023/01/01 21:49:30;;;;;;;7.90;4.73;;;;;;;14.69;44.18;99693.41;10400881;28;20247;-62
2023/01/01 21:54:36;;;;;;;6.50;4.90;;;;;;;15.11;44.09;99655.28;10381592;28;20235;-60
2023/01/01 21:59:43;;;;;;;9.77;5.50;;;;;;;15.04;43.25;99676.06;10399476;28;20242;-60
2023/01/01 22:04:47;;;;;;;7.63;4.20;;;;;;;15.04;43.90;99660.72;10397067;28;20251;-61
2023/01/01 22:09:49;;;;;;;8.10;5.13;;;;;;;15.44;42.90;99636.16;10402437;28;20346;-60
2023/01/01 22:14:53;;;;;;;8.47;4.37;;;;;;;14.47;44.56;99713.59;10398712;28;20248;-60
2023/01/01 22:20:14;;;;;;;9.23;4.73;;;;;;;14.73;43.26;99697.34;10401060;28;20227;-60
2023/01/01 22:25:31;;;;;;;10.00;4.60;;;;;;;16.14;42.13;99647.75;10395759;28;20787;-61
2023/01/01 22:30:40;;;;;;;7.37;4.47;;;;;;;15.11;43.25;99706.50;10398302;28;20228;-60
2023/01/01 22:35:42;;;;;;;6.57;4.00;;;;;;;15.95;42.29;99653.16;10403370;28;20244;-60
2023/01/01 22:40:47;;;;;;;5.07;4.27;;;;;;;15.45;42.93;99715.19;10396360;28;20240;-61
2023/01/01 22:45:49;;;;;;;7.57;4.40;;;;;;;16.03;41.75;99652.88;10393396;28;20228;-61
2023/01/01 22:50:53;;;;;;;6.67;4.00;;;;;;;15.40;42.88;99696.13;10399430;28;20232;-61
2023/01/01 22:55:54;;;;;;;9.23;4.03;;;;;;;15.00;43.22;99729.56;10396585;28;20307;-61
2023/01/01 23:00:56;;;;;;;11.57;3.80;;;;;;;14.85;44.03;99729.03;10398925;28;20228;-60
2023/01/01 23:05:58;;;;;;;7.73;4.57;;;;;;;15.56;42.80;99692.13;10403141;28;20965;-60
2023/01/01 23:11:01;;;;;;;9.43;4.23;;;;;;;15.06;43.43;99728.69;10403115;28;20236;-61
2023/01/01 23:16:03;;;;;;;9.67;4.40;;;;;;;16.18;42.16;99648.97;10394557;28;20236;-59
2023/01/01 23:21:16;;;;;;;8.63;4.07;;;;;;;15.20;43.85;99691.72;10403015;28;20232;-60
2023/01/01 23:26:27;;;;;;;5.23;3.83;;;;;;;15.81;42.57;99649.78;10394442;28;20295;-60
2023/01/01 23:31:30;;;;;;;7.73;4.03;;;;;;;15.70;42.78;99654.00;10400803;28;20377;-60
2023/01/01 23:36:33;;;;;;;6.50;4.30;;;;;;;14.91;43.30;99710.13;10399076;28;20910;-60
2023/01/01 23:41:35;;;;;;;5.43;3.83;;;;;;;15.17;43.33;99708.31;10400844;28;20242;-60
2023/01/01 23:46:37;;;;;;;8.60;3.97;;;;;;;14.89;43.58;99711.38;10390213;28;20274;-60